Boscastle, United Kingdom
Current Conditions -  °F | °C
As of 8:50 PM on Thursday 23 Oct 2014 (Local Time) from EGHQ Reporting Station
Drizzle Drizzle  
Wind Chill: 55°   Ceiling: 600
Heat Index: 55°   Visibility: 6mi
Dew Point: 55°   Wind: 16mph
Humidity: 100%   Direction: 250°WSW
Pressure: 30.06"   Gusts: NA
Location:  50.68°N, 4.69°W
Report Text: EGHQ 231950Z 25014KT 9999 -DZ BKN006 13/13 Q1018
Loading
Personal Weather Stations






























Interactive Weather Map
Tropical Storm Tracking
New forecast layout! Learn more

10-Day Weather Forecast

Advertisements
Track Severe Weather on mobile